sensor_id;sensor_type;location;lat;lon;timestamp;pressure;altitude;pressure_sealevel;temperature;humidity
16194;BME280;8204;53.582;10.080;2023-04-03T00:01:30;103017.06;;;4.48;100.00
16194;BME280;8204;53.582;10.080;2023-04-03T00:04:04;103018.06;;;4.46;100.00
16194;BME280;8204;53.582;10.080;2023-04-03T00:06:35;103016.63;;;4.39;100.00
16194;BME280;8204;53.582;10.080;2023-04-03T00:09:04;103013.22;;;4.37;100.00
16194;BME280;8204;53.582;10.080;2023-04-03T00:11:33;103003.00;;;4.34;100.00
16194;BME280;8204;53.582;10.080;2023-04-03T00:14:02;103006.56;;;4.32;100.00
16194;BME280;8204;53.582;10.080;2023-04-03T00:16:31;103010.78;;;4.34;100.00
16194;BME280;8204;53.582;10.080;2023-04-03T00:19:03;103009.97;;;4.33;100.00
16194;BME280;8204;53.582;10.080;2023-04-03T00:21:31;103008.25;;;4.32;100.00
16194;BME280;8204;53.582;10.080;2023-04-03T00:24:00;103017.78;;;4.32;100.00
16194;BME280;8204;53.582;10.080;2023-04-03T00:26:30;103017.22;;;4.26;100.00
16194;BME280;8204;53.582;10.080;2023-04-03T00:28:59;103020.97;;;4.19;100.00
16194;BME280;8204;53.582;10.080;2023-04-03T00:31:28;103019.25;;;4.18;100.00
16194;BME280;8204;53.582;10.080;2023-04-03T00:33:58;103014.91;;;4.18;100.00
16194;BME280;8204;53.582;10.080;2023-04-03T00:36:36;103018.66;;;4.11;100.00
16194;BME280;8204;53.582;10.080;2023-04-03T00:39:04;103018.78;;;4.08;100.00
16194;BME280;8204;53.582;10.080;2023-04-03T00:41:33;103016.22;;;4.08;100.00
16194;BME280;8204;53.582;10.080;2023-04-03T00:44:18;103027.47;;;4.07;100.00
16194;BME280;8204;53.582;10.080;2023-04-03T00:46:47;103017.19;;;4.06;100.00
16194;BME280;8204;53.582;10.080;2023-04-03T00:49:16;103014.63;;;4.04;100.00
16194;BME280;8204;53.582;10.080;2023-04-03T00:51:48;103025.22;;;4.00;100.00
16194;BME280;8204;53.582;10.080;2023-04-03T00:54:17;103024.50;;;3.96;100.00
16194;BME280;8204;53.582;10.080;2023-04-03T00:56:47;103019.41;;;3.93;100.00
16194;BME280;8204;53.582;10.080;2023-04-03T00:59:21;103022.13;;;3.90;100.00
16194;BME280;8204;53.582;10.080;2023-04-03T01:01:52;103018.63;;;3.91;100.00
16194;BME280;8204;53.582;10.080;2023-04-03T01:04:29;103027.44;;;3.87;100.00
16194;BME280;8204;53.582;10.080;2023-04-03T01:07:02;103019.66;;;3.87;100.00
16194;BME280;8204;53.582;10.080;2023-04-03T01:09:33;103011.09;;;3.85;100.00
16194;BME280;8204;53.582;10.080;2023-04-03T01:12:15;103019.91;;;3.81;100.00
16194;BME280;8204;53.582;10.080;2023-04-03T01:14:46;103018.34;;;3.77;100.00
16194;BME280;8204;53.582;10.080;2023-04-03T01:17:30;103010.59;;;3.76;100.00
16194;BME280;8204;53.582;10.080;2023-04-03T01:23:17;103022.13;;;3.69;100.00
16194;BME280;8204;53.582;10.080;2023-04-03T01:25:50;103005.66;;;3.70;100.00
16194;BME280;8204;53.582;10.080;2023-04-03T01:28:21;103002.31;;;3.68;100.00
16194;BME280;8204;53.582;10.080;2023-04-03T01:30:56;103008.50;;;3.64;100.00
16194;BME280;8204;53.582;10.080;2023-04-03T01:33:31;103006.88;;;3.61;100.00
16194;BME280;8204;53.582;10.080;2023-04-03T01:35:59;103014.72;;;3.60;100.00
16194;BME280;8204;53.582;10.080;2023-04-03T01:38:29;103007.13;;;3.56;100.00
16194;BME280;8204;53.582;10.080;2023-04-03T01:40:58;103009.03;;;3.51;100.00
16194;BME280;8204;53.582;10.080;2023-04-03T01:43:27;102995.19;;;3.52;100.00
16194;BME280;8204;53.582;10.080;2023-04-03T01:45:56;102995.19;;;3.52;100.00
16194;BME280;8204;53.582;10.080;2023-04-03T01:48:24;102995.19;;;3.52;100.00
16194;BME280;8204;53.582;10.080;2023-04-03T01:50:56;102999.66;;;3.48;100.00
16194;BME280;8204;53.582;10.080;2023-04-03T01:53:24;102998.91;;;3.45;100.00
16194;BME280;8204;53.582;10.080;2023-04-03T01:55:53;103005.00;;;3.44;100.00
16194;BME280;8204;53.582;10.080;2023-04-03T01:58:22;103000.72;;;3.43;100.00
16194;BME280;8204;53.582;10.080;2023-04-03T02:00:51;103013.00;;;3.38;100.00
16194;BME280;8204;53.582;10.080;2023-04-03T02:03:20;103010.53;;;3.35;100.00
16194;BME280;8204;53.582;10.080;2023-04-03T02:05:49;103009.84;;;3.30;100.00
16194;BME280;8204;53.582;10.080;2023-04-03T02:08:21;103009.72;;;3.33;100.00
16194;BME280;8204;53.582;10.080;2023-04-03T02:10:50;103003.78;;;3.31;100.00
16194;BME280;8204;53.582;10.080;2023-04-03T02:13:19;102997.56;;;3.35;100.00
16194;BME280;8204;53.582;10.080;2023-04-03T02:15:48;102997.56;;;3.35;100.00
16194;BME280;8204;53.582;10.080;2023-04-03T02:18:17;102992.28;;;3.38;100.00
16194;BME280;8204;53.582;10.080;2023-04-03T02:20:46;102989.00;;;3.33;100.00
16194;BME280;8204;53.582;10.080;2023-04-03T02:23:16;102995.94;;;3.32;100.00
16194;BME280;8204;53.582;10.080;2023-04-03T02:25:47;102987.44;;;3.29;100.00
16194;BME280;8204;53.582;10.080;2023-04-03T02:28:16;102993.41;;;3.31;100.00
16194;BME280;8204;53.582;10.080;2023-04-03T02:30:46;102993.59;;;3.26;100.00
16194;BME280;8204;53.582;10.080;2023-04-03T02:33:15;102991.06;;;3.25;100.00
16194;BME280;8204;53.582;10.080;2023-04-03T02:35:44;103000.56;;;3.24;100.00
16194;BME280;8204;53.582;10.080;2023-04-03T02:38:19;102990.31;;;3.21;100.00
16194;BME280;8204;53.582;10.080;2023-04-03T02:40:50;102994.66;;;3.21;100.00
16194;BME280;8204;53.582;10.080;2023-04-03T02:43:19;102987.78;;;3.20;100.00
16194;BME280;8204;53.582;10.080;2023-04-03T02:45:48;103001.75;;;3.16;100.00
16194;BME280;8204;53.582;10.080;2023-04-03T02:48:17;102993.00;;;3.18;100.00
16194;BME280;8204;53.582;10.080;2023-04-03T02:50:46;103000.91;;;3.15;100.00
16194;BME280;8204;53.582;10.080;2023-04-03T02:53:14;102987.16;;;3.13;100.00
16194;BME280;8204;53.582;10.080;2023-04-03T02:55:43;103001.88;;;3.13;100.00
16194;BME280;8204;53.582;10.080;2023-04-03T02:58:15;102997.75;;;3.07;100.00
16194;BME280;8204;53.582;10.080;2023-04-03T03:00:44;103007.38;;;3.04;100.00
16194;BME280;8204;53.582;10.080;2023-04-03T03:03:13;102999.63;;;3.04;100.00
16194;BME280;8204;53.582;10.080;2023-04-03T03:05:42;103004.97;;;2.99;100.00
16194;BME280;8204;53.582;10.080;2023-04-03T03:08:10;103003.16;;;3.01;100.00
16194;BME280;8204;53.582;10.080;2023-04-03T03:10:39;103003.25;;;2.98;100.00
16194;BME280;8204;53.582;10.080;2023-04-03T03:13:08;103005.13;;;2.95;100.00
16194;BME280;8204;53.582;10.080;2023-04-03T03:15:39;103001.75;;;2.93;100.00
16194;BME280;8204;53.582;10.080;2023-04-03T03:18:08;103003.66;;;2.88;100.00
16194;BME280;8204;53.582;10.080;2023-04-03T03:20:37;102998.53;;;2.87;100.00
16194;BME280;8204;53.582;10.080;2023-04-03T03:23:05;102988.19;;;2.87;100.00
16194;BME280;8204;53.582;10.080;2023-04-03T03:25:37;102987.34;;;2.86;100.00
16194;BME280;8204;53.582;10.080;2023-04-03T03:28:06;102978.78;;;2.84;100.00
16194;BME280;8204;53.582;10.080;2023-04-03T03:30:35;102979.63;;;2.85;100.00
16194;BME280;8204;53.582;10.080;2023-04-03T03:33:06;102979.81;;;2.80;100.00
16194;BME280;8204;53.582;10.080;2023-04-03T03:35:35;102980.78;;;2.76;100.00
16194;BME280;8204;53.582;10.080;2023-04-03T03:38:04;102980.00;;;2.74;100.00
16194;BME280;8204;53.582;10.080;2023-04-03T03:40:33;102980.91;;;2.73;100.00
16194;BME280;8204;53.582;10.080;2023-04-03T03:43:02;102973.25;;;2.70;100.00
16194;BME280;8204;53.582;10.080;2023-04-03T03:45:31;102968.88;;;2.72;100.00
16194;BME280;8204;53.582;10.080;2023-04-03T03:48:00;102969.72;;;2.73;100.00
16194;BME280;8204;53.582;10.080;2023-04-03T03:50:32;102973.25;;;2.70;100.00
16194;BME280;8204;53.582;10.080;2023-04-03T03:53:01;102977.53;;;2.71;100.00
16194;BME280;8204;53.582;10.080;2023-04-03T03:55:30;102962.22;;;2.65;100.00
16194;BME280;8204;53.582;10.080;2023-04-03T03:57:58;102971.56;;;2.69;100.00
16194;BME280;8204;53.582;10.080;2023-04-03T04:00:28;102955.13;;;2.70;100.00
16194;BME280;8204;53.582;10.080;2023-04-03T04:02:57;102961.38;;;2.65;100.00
16194;BME280;8204;53.582;10.080;2023-04-03T04:05:26;102961.44;;;2.63;100.00
16194;BME280;8204;53.582;10.080;2023-04-03T04:07:58;102950.03;;;2.69;100.00
16194;BME280;8204;53.582;10.080;2023-04-03T04:10:27;102961.44;;;2.63;100.00
16194;BME280;8204;53.582;10.080;2023-04-03T04:12:56;102971.09;;;2.58;100.00
16194;BME280;8204;53.582;10.080;2023-04-03T04:15:25;102957.38;;;2.56;100.00
16194;BME280;8204;53.582;10.080;2023-04-03T04:17:54;102962.69;;;2.52;100.00
16194;BME280;8204;53.582;10.080;2023-04-03T04:20:23;102948.84;;;2.54;100.00
16194;BME280;8204;53.582;10.080;2023-04-03T04:22:52;102958.47;;;2.49;100.00
16194;BME280;8204;53.582;10.080;2023-04-03T04:25:23;102949.81;;;2.50;100.00
16194;BME280;8204;53.582;10.080;2023-04-03T04:27:52;102955.88;;;2.51;100.00
16194;BME280;8204;53.582;10.080;2023-04-03T04:30:20;102961.81;;;2.53;100.00
16194;BME280;8204;53.582;10.080;2023-04-03T04:32:49;102961.81;;;2.53;100.00
16194;BME280;8204;53.582;10.080;2023-04-03T04:35:18;102968.06;;;2.47;100.00
16194;BME280;8204;53.582;10.080;2023-04-03T04:37:47;102962.97;;;2.44;100.00
16194;BME280;8204;53.582;10.080;2023-04-03T04:40:16;102958.69;;;2.43;100.00
16194;BME280;8204;53.582;10.080;2023-04-03T04:42:47;102973.41;;;2.41;100.00
16194;BME280;8204;53.582;10.080;2023-04-03T04:45:16;102968.25;;;2.41;100.00
16194;BME280;8204;53.582;10.080;2023-04-03T04:47:45;102976.19;;;2.37;100.00
16194;BME280;8204;53.582;10.080;2023-04-03T04:50:15;102984.03;;;2.34;100.00
16194;BME280;8204;53.582;10.080;2023-04-03T04:52:44;102986.78;;;2.29;100.00
16194;BME280;8204;53.582;10.080;2023-04-03T04:55:13;102990.25;;;2.28;100.00
16194;BME280;8204;53.582;10.080;2023-04-03T04:57:42;102989.41;;;2.28;100.00
16194;BME280;8204;53.582;10.080;2023-04-03T05:00:15;102967.84;;;2.29;100.00
16194;BME280;8204;53.582;10.080;2023-04-03T05:02:44;102981.72;;;2.26;100.00
16194;BME280;8204;53.582;10.080;2023-04-03T05:05:12;102977.38;;;2.27;100.00
16194;BME280;8204;53.582;10.080;2023-04-03T05:07:41;102983.41;;;2.27;100.00
16194;BME280;8204;53.582;10.080;2023-04-03T05:10:10;102986.00;;;2.27;100.00
16194;BME280;8204;53.582;10.080;2023-04-03T05:12:39;102985.06;;;2.28;100.00
16194;BME280;8204;53.582;10.080;2023-04-03T05:15:09;102983.41;;;2.27;100.00
16194;BME280;8204;53.582;10.080;2023-04-03T05:17:40;102979.00;;;2.29;100.00
16194;BME280;8204;53.582;10.080;2023-04-03T05:20:10;102991.19;;;2.27;100.00
16194;BME280;8204;53.582;10.080;2023-04-03T05:22:39;102978.19;;;2.29;100.00
16194;BME280;8204;53.582;10.080;2023-04-03T05:25:09;102961.63;;;2.34;100.00
16194;BME280;8204;53.582;10.080;2023-04-03T05:27:39;102973.63;;;2.35;100.00
16194;BME280;8204;53.582;10.080;2023-04-03T05:30:08;102968.25;;;2.41;100.00
16194;BME280;8204;53.582;10.080;2023-04-03T05:32:41;102950.84;;;2.46;100.00
16194;BME280;8204;53.582;10.080;2023-04-03T05:35:10;102968.91;;;2.48;100.00
16194;BME280;8204;53.582;10.080;2023-04-03T05:37:39;102955.69;;;2.55;100.00
16194;BME280;8204;53.582;10.080;2023-04-03T05:40:09;102944.19;;;2.64;100.00
16194;BME280;8204;53.582;10.080;2023-04-03T05:42:38;102931.00;;;2.70;100.00
16194;BME280;8204;53.582;10.080;2023-04-03T05:45:07;102921.09;;;2.81;100.00
16194;BME280;8204;53.582;10.080;2023-04-03T05:47:41;102911.34;;;2.87;100.00
16194;BME280;8204;53.582;10.080;2023-04-03T05:50:10;102909.47;;;2.92;100.00
16194;BME280;8204;53.582;10.080;2023-04-03T05:52:43;102925.03;;;2.90;100.00
16194;BME280;8204;53.582;10.080;2023-04-03T05:55:12;102930.94;;;2.94;100.00
16194;BME280;8204;53.582;10.080;2023-04-03T05:57:42;102934.97;;;3.01;100.00
16194;BME280;8204;53.582;10.080;2023-04-03T06:00:13;102939.34;;;3.00;100.00
16194;BME280;8204;53.582;10.080;2023-04-03T06:02:45;102953.81;;;3.06;100.00
16194;BME280;8204;53.582;10.080;2023-04-03T06:05:14;102947.75;;;3.05;100.00
16194;BME280;8204;53.582;10.080;2023-04-03T06:07:43;102949.34;;;3.09;100.00
16194;BME280;8204;53.582;10.080;2023-04-03T06:10:12;102947.50;;;3.13;100.00
16194;BME280;8204;53.582;10.080;2023-04-03T06:12:41;102954.31;;;3.15;100.00
16194;BME280;8204;53.582;10.080;2023-04-03T06:15:10;102950.56;;;3.22;100.00
16194;BME280;8204;53.582;10.080;2023-04-03T06:17:44;102956.34;;;3.29;100.00
16194;BME280;8204;53.582;10.080;2023-04-03T06:20:13;102953.41;;;3.38;100.00
16194;BME280;8204;53.582;10.080;2023-04-03T06:22:42;102970.53;;;3.42;100.00
16194;BME280;8204;53.582;10.080;2023-04-03T06:25:11;102963.38;;;3.48;100.00
16194;BME280;8204;53.582;10.080;2023-04-03T06:27:41;102972.53;;;3.57;100.00
16194;BME280;8204;53.582;10.080;2023-04-03T06:30:10;102985.25;;;3.62;100.00
16194;BME280;8204;53.582;10.080;2023-04-03T06:32:39;102990.09;;;3.70;100.00
16194;BME280;8204;53.582;10.080;2023-04-03T06:35:11;102994.22;;;3.75;100.00
16194;BME280;8204;53.582;10.080;2023-04-03T06:37:40;103000.84;;;3.82;100.00
16194;BME280;8204;53.582;10.080;2023-04-03T06:40:15;103007.47;;;3.89;100.00
16194;BME280;8204;53.582;10.080;2023-04-03T06:42:46;103009.03;;;3.93;100.00
16194;BME280;8204;53.582;10.080;2023-04-03T06:45:15;103008.53;;;4.05;100.00
16194;BME280;8204;53.582;10.080;2023-04-03T06:47:45;103011.66;;;4.13;100.00
